Time;durP1;ratioP1;P1;durP2;ratioP2;P2;SDS_P1;SDS_P2;PMS_P1;PMS_P2;Temp;Humidity;BMP_temperature;BMP_pressure;BME280_temperature;BME280_humidity;BME280_pressure;Samples;Min_cycle;Max_cycle;Signal;HPM_P1;HPM_P2
2021/08/22 00:01:40;;;;;;;9.20;8.50;;;18.20;81.80;;;17.36;83.48;97959.81;5094738;28;20877;-84
2021/08/22 00:04:28;;;;;;;11.97;9.90;;;18.10;81.90;;;17.37;82.94;97962.31;5091181;28;20433;-84
2021/08/22 00:07:19;;;;;;;10.37;9.57;;;18.20;81.60;;;17.50;82.55;97947.38;5099539;28;20451;-84
2021/08/22 00:10:08;;;;;;;10.63;9.63;;;18.30;81.80;;;17.65;81.97;97954.03;5095353;28;20437;-84
2021/08/22 00:12:58;;;;;;;10.23;9.17;;;18.40;81.20;;;17.46;82.75;97962.66;5090517;28;20445;-84
2021/08/22 00:15:47;;;;;;;10.80;9.90;;;18.40;81.40;;;17.37;83.37;97969.69;5085415;28;20444;-83
2021/08/22 00:18:37;;;;;;;11.77;10.77;;;18.20;82.10;;;17.33;83.27;97974.84;5084214;28;20451;-83
2021/08/22 00:21:25;;;;;;;10.00;9.10;;;18.20;82.40;;;17.13;83.71;97918.97;5074681;28;20441;-83
2021/08/22 00:24:12;;;;;;;10.50;9.70;;;18.10;83.20;;;17.42;83.84;97959.59;5072569;28;20444;-82
2021/08/22 00:27:01;;;;;;;10.73;9.83;;;18.20;83.40;;;17.36;84.19;97954.38;5071603;28;20784;-84
2021/08/22 00:29:48;;;;;;;9.30;8.50;;;18.30;83.70;;;17.27;83.97;97935.75;5086798;28;20461;-83
2021/08/22 00:32:38;;;;;;;10.13;9.03;;;18.20;83.60;;;17.61;81.99;97950.19;5083521;28;20458;-83
2021/08/22 00:35:28;;;;;;;9.20;8.40;;;18.30;82.10;;;17.72;81.06;97935.50;5085731;28;20437;-83
2021/08/22 00:38:16;;;;;;;10.57;9.40;;;18.50;81.00;;;17.96;79.58;97933.19;5087747;28;20429;-84
2021/08/22 00:41:04;;;;;;;9.20;8.30;;;18.60;79.80;;;18.08;78.55;97932.97;5073911;28;20469;-82
2021/08/22 00:43:52;;;;;;;10.37;9.37;;;18.80;79.10;;;17.90;78.34;97889.69;5079785;28;20439;-84
2021/08/22 00:46:40;;;;;;;9.43;8.53;;;18.90;78.50;;;18.19;78.00;97924.81;5079664;28;20495;-83
2021/08/22 00:49:29;;;;;;;9.60;8.80;;;18.90;78.00;;;18.31;77.16;97928.16;5083521;28;20429;-84
2021/08/22 00:52:20;;;;;;;9.67;8.87;;;19.00;77.70;;;18.39;76.37;97927.63;5088119;28;20436;-84
2021/08/22 00:55:09;;;;;;;10.03;9.13;;;19.10;76.50;;;18.47;75.74;97917.25;5088765;28;20433;-84
2021/08/22 00:57:56;;;;;;;9.20;7.83;;;19.10;76.10;;;18.63;75.23;97926.31;5090298;28;20464;-84
2021/08/22 01:00:44;;;;;;;8.37;7.63;;;19.30;75.50;;;18.71;74.89;97933.16;5089455;28;20471;-84
2021/08/22 01:03:41;;;;;;;9.00;8.20;;;19.40;75.10;;;18.71;74.68;97928.53;5073129;28;20535;-84
2021/08/22 01:06:38;;;;;;;8.83;8.03;;;19.40;74.60;;;18.62;75.11;97930.97;5059774;28;20429;-84
2021/08/22 01:09:31;;;;;;;10.03;8.30;;;19.40;74.60;;;18.58;75.19;97940.81;5082489;28;20451;-84
2021/08/22 01:12:29;;;;;;;9.90;9.00;;;19.30;74.50;;;18.50;75.92;97950.38;5079946;28;20439;-84
2021/08/22 01:15:23;;;;;;;10.17;9.00;;;19.30;74.90;;;18.48;76.11;97935.31;5077266;28;20439;-84
2021/08/22 01:18:19;;;;;;;8.33;7.70;;;19.20;75.00;;;18.38;76.26;97947.06;5078109;28;20429;-84
2021/08/22 01:21:11;;;;;;;9.53;8.63;;;19.10;75.00;;;18.31;76.50;97939.09;5081005;28;20795;-85
2021/08/22 01:24:03;;;;;;;8.90;8.20;;;19.10;75.10;;;18.21;77.25;97937.16;5079786;28;20441;-84
2021/08/22 01:27:01;;;;;;;8.23;7.43;;;19.00;75.70;;;18.06;77.66;97931.63;5083905;28;20898;-84
2021/08/22 01:29:57;;;;;;;9.80;8.80;;;18.90;75.70;;;18.02;77.29;97934.06;5076976;28;20452;-85
2021/08/22 01:32:48;;;;;;;10.07;9.27;;;18.90;75.70;;;17.98;77.92;97932.91;5092277;28;20498;-85
2021/08/22 01:35:37;;;;;;;9.53;8.77;;;18.80;76.00;;;17.81;78.46;97922.97;5091929;28;20427;-85
2021/08/22 01:38:25;;;;;;;9.10;8.20;;;18.80;76.60;;;17.93;78.32;97924.69;5086712;28;20423;-84
2021/08/22 01:41:12;;;;;;;8.73;7.93;;;18.70;76.90;;;17.87;78.79;97923.81;5078597;28;20453;-84
2021/08/22 01:44:02;;;;;;;9.10;8.40;;;18.70;76.80;;;17.79;79.32;97933.34;5050139;28;20421;-84
2021/08/22 01:46:51;;;;;;;8.90;8.20;;;18.60;77.20;;;17.76;79.44;97925.69;5065005;28;20587;-84
2021/08/22 01:49:43;;;;;;;9.40;8.60;;;18.60;77.70;;;17.76;79.56;97942.09;5067328;28;20443;-84
2021/08/22 01:52:34;;;;;;;9.13;8.27;;;18.60;78.00;;;17.76;79.76;97946.75;5065698;28;20440;-84
2021/08/22 01:55:21;;;;;;;9.37;8.50;;;18.50;78.30;;;17.78;79.33;97945.38;5075127;28;20790;-84
2021/08/22 01:58:09;;;;;;;9.33;8.53;;;18.50;78.30;;;17.83;79.62;97941.84;5072756;28;20444;-84
2021/08/22 02:00:58;;;;;;;9.57;8.50;;;18.60;78.30;;;17.90;79.05;97950.66;5075830;28;20488;-84
2021/08/22 02:03:54;;;;;;;9.80;9.00;;;18.60;77.90;;;17.89;78.84;97937.22;5075969;28;20535;-85
2021/08/22 02:06:49;;;;;;;9.70;8.90;;;18.70;78.00;;;17.81;78.69;97922.97;5066300;28;20487;-83
2021/08/22 02:09:57;;;;;;;9.13;8.30;;;18.70;77.60;;;18.04;78.17;97931.88;5065247;28;20437;-84
2021/08/22 02:12:49;;;;;;;9.90;9.10;;;18.70;77.30;;;18.01;78.44;97937.84;5083748;28;20457;-84
2021/08/22 02:15:45;;;;;;;9.20;8.40;;;18.80;77.40;;;18.06;77.96;97939.81;5082047;28;20440;-84
2021/08/22 02:18:37;;;;;;;8.80;7.90;;;18.80;77.00;;;18.00;78.05;97941.66;5078350;28;20425;-84
2021/08/22 02:21:27;;;;;;;9.20;8.30;;;18.80;77.10;;;17.86;77.93;97918.66;5078076;28;20445;-85
2021/08/22 02:24:16;;;;;;;8.73;7.93;;;18.80;77.00;;;18.02;77.88;97964.13;5076596;28;20441;-84
2021/08/22 02:27:05;;;;;;;9.67;8.87;;;18.80;76.90;;;17.92;78.18;97956.66;5065363;28;20472;-83
2021/08/22 02:29:55;;;;;;;9.87;9.10;;;18.70;77.00;;;18.03;78.22;97971.22;5083921;28;20468;-85
2021/08/22 02:32:44;;;;;;;9.90;9.00;;;18.80;77.30;;;18.04;78.01;97977.50;5078157;28;20479;-85
2021/08/22 02:35:32;;;;;;;9.63;8.87;;;18.80;77.00;;;18.28;77.56;98013.47;5092409;28;20452;-85
2021/08/22 02:38:21;;;;;;;10.93;9.07;;;18.90;77.10;;;18.36;77.49;98064.91;5095439;28;20456;-86
2021/08/22 02:41:12;;;;;;;12.00;10.80;;;19.10;77.00;;;18.22;77.47;98045.44;5090485;28;20511;-85
2021/08/22 02:47:02;;;;;;;8.70;7.83;;;19.30;77.70;;;18.50;78.81;98095.34;5076833;28;20460;-85
2021/08/22 02:49:51;;;;;;;9.70;7.73;;;19.30;78.10;;;18.35;81.68;98085.13;5054218;28;20447;-85
2021/08/22 02:52:41;;;;;;;8.93;8.07;;;19.10;80.50;;;18.09;83.48;98068.56;5061354;28;20531;-85
2021/08/22 02:55:29;;;;;;;8.17;7.10;;;19.00;82.60;;;17.77;85.96;98069.41;5064762;28;20444;-85
2021/08/22 02:58:20;;;;;;;7.63;6.83;;;18.70;84.90;;;17.75;86.43;98059.84;5077560;28;20437;-85
2021/08/22 03:01:07;;;;;;;7.50;6.80;;;18.60;86.70;;;17.72;86.37;98060.34;5075904;28;20998;-85
2021/08/22 03:03:55;;;;;;;6.77;6.17;;;18.60;87.30;;;17.65;86.93;98066.88;5074862;28;20436;-85
2021/08/22 03:06:44;;;;;;;6.30;5.27;;;18.50;88.00;;;17.71;86.79;98086.84;5070911;28;20437;-85
2021/08/22 03:09:32;;;;;;;4.83;4.40;;;18.50;88.20;;;17.47;87.34;98065.34;5076014;28;20428;-85
2021/08/22 03:12:21;;;;;;;5.57;4.30;;;18.40;88.60;;;17.48;86.96;98077.91;5074867;28;20538;-85
2021/08/22 03:15:17;;;;;;;5.03;4.50;;;18.40;88.30;;;17.38;87.64;98075.91;5059728;28;20443;-85
2021/08/22 03:18:06;;;;;;;4.70;4.20;;;18.20;89.00;;;17.28;87.86;98073.91;5090584;28;20437;-85
2021/08/22 03:20:54;;;;;;;6.77;4.43;;;18.10;89.60;;;16.78;88.56;98059.44;5080137;28;21306;-84
2021/08/22 03:23:41;;;;;;;5.47;3.97;;;17.80;89.60;;;16.55;90.60;98055.06;5061287;28;20445;-84
2021/08/22 03:26:30;;;;;;;4.77;4.33;;;17.50;91.10;;;16.30;93.74;98042.72;5067818;28;20456;-84
2021/08/22 03:29:18;;;;;;;7.70;5.23;;;17.30;93.60;;;16.12;95.12;98041.16;5065953;28;20562;-84
2021/08/22 03:32:09;;;;;;;12.47;5.30;;;17.10;95.70;;;15.88;97.45;98024.16;5074116;28;20485;-84
2021/08/22 03:35:05;;;;;;;5.40;4.90;;;16.80;99.90;;;15.56;99.17;98015.50;5071918;28;20464;-85
2021/08/22 03:37:52;;;;;;;6.83;4.90;;;16.60;99.90;;;15.36;100.00;98001.56;5054510;28;20433;-84
2021/08/22 03:40:39;;;;;;;7.30;6.00;;;16.40;99.90;;;15.29;100.00;98012.59;5071478;28;20470;-86
2021/08/22 03:43:29;;;;;;;6.37;5.73;;;16.30;99.90;;;15.22;100.00;98001.06;5082535;28;20889;-86
2021/08/22 03:46:17;;;;;;;6.90;6.20;;;16.20;99.90;;;15.20;100.00;98004.03;5085519;28;20948;-86
2021/08/22 03:49:06;;;;;;;8.63;6.60;;;16.20;99.90;;;15.14;100.00;97978.63;5074971;28;20424;-85
2021/08/22 03:51:55;;;;;;;9.10;8.10;;;16.20;99.90;;;15.22;100.00;97979.28;5084236;28;20421;-85
2021/08/22 03:54:43;;;;;;;11.10;7.57;;;16.20;99.90;;;15.10;100.00;97973.94;5083468;28;20461;-85
2021/08/22 03:57:31;;;;;;;8.93;7.50;;;16.10;99.90;;;15.09;100.00;97985.84;5054922;28;20431;-85
2021/08/22 04:00:19;;;;;;;9.00;8.10;;;16.10;99.90;;;15.17;100.00;98009.97;5075663;28;20540;-85
2021/08/22 04:03:07;;;;;;;11.53;9.23;;;16.20;99.90;;;15.29;100.00;98024.31;5065809;28;20486;-85
2021/08/22 04:05:58;;;;;;;14.00;10.00;;;16.20;99.90;;;15.42;100.00;98006.84;5081309;28;20460;-86
2021/08/22 04:08:46;;;;;;;9.70;8.70;;;16.30;99.90;;;15.28;100.00;97972.84;5079065;28;20548;-86
2021/08/22 04:11:33;;;;;;;11.00;8.30;;;16.30;99.90;;;15.18;100.00;97970.78;5076960;28;21158;-86
2021/08/22 04:14:21;;;;;;;8.80;8.00;;;16.30;99.90;;;15.30;100.00;97993.31;5065898;28;20425;-84
2021/08/22 04:17:09;;;;;;;10.67;7.93;;;16.30;99.90;;;15.29;100.00;97980.78;5060763;28;20445;-85
2021/08/22 04:19:57;;;;;;;9.10;8.30;;;16.30;99.90;;;15.12;100.00;97983.47;5072862;28;20457;-85
2021/08/22 04:22:46;;;;;;;9.57;8.67;;;16.20;99.90;;;15.20;100.00;97976.00;5064316;28;20998;-87
2021/08/22 04:25:33;;;;;;;9.57;8.60;;;16.20;99.90;;;15.39;100.00;97979.28;5078930;28;21008;-85
2021/08/22 04:28:21;;;;;;;9.90;8.60;;;16.30;99.90;;;15.27;100.00;97993.81;5066827;28;20718;-86
2021/08/22 04:31:09;;;;;;;10.47;9.40;;;16.30;99.90;;;15.34;100.00;97987.38;5079742;28;20507;-86
2021/08/22 04:33:56;;;;;;;9.77;8.90;;;16.20;99.90;;;15.43;100.00;97978.53;5081595;28;20887;-86
2021/08/22 04:36:44;;;;;;;10.50;9.47;;;16.30;99.90;;;15.41;100.00;97977.16;5076283;28;20437;-86
2021/08/22 04:39:33;;;;;;;9.10;8.20;;;16.40;99.90;;;15.41;100.00;97974.44;5069273;28;20443;-85
2021/08/22 04:42:21;;;;;;;10.17;9.07;;;16.40;99.90;;;15.61;100.00;98000.31;5076107;28;20437;-85
2021/08/22 04:45:12;;;;;;;10.70;9.70;;;16.50;99.90;;;15.64;100.00;97989.75;5076480;28;20432;-85
2021/08/22 04:47:59;;;;;;;10.30;7.83;;;16.50;99.90;;;15.82;100.00;98002.25;5060476;28;20483;-86
2021/08/22 04:50:50;;;;;;;9.13;8.17;;;16.60;99.90;;;15.93;100.00;98005.19;5076515;28;20440;-85
2021/08/22 04:53:38;;;;;;;8.90;7.80;;;16.80;99.90;;;15.72;100.00;97972.19;5058643;28;20615;-86
2021/08/22 04:56:27;;;;;;;10.83;8.23;;;16.80;99.90;;;16.05;100.00;98003.19;5078405;28;20457;-85
2021/08/22 04:59:15;;;;;;;7.43;6.63;;;16.90;99.90;;;16.05;100.00;98005.91;5063721;28;20803;-85
2021/08/22 05:02:04;;;;;;;6.73;6.10;;;17.00;99.90;;;16.28;100.00;98007.56;5062726;28;20464;-80
2021/08/22 05:04:51;;;;;;;7.20;6.50;;;17.10;99.90;;;16.22;100.00;98002.31;5080483;28;20436;-79
2021/08/22 05:07:41;;;;;;;6.57;5.83;;;17.10;99.90;;;16.12;100.00;97982.00;5081084;28;20413;-87
2021/08/22 05:10:30;;;;;;;6.20;5.60;;;17.10;99.90;;;16.27;100.00;97994.19;5080737;28;20456;-85
2021/08/22 05:13:23;;;;;;;7.17;5.60;;;17.10;99.90;;;16.20;100.00;97996.28;5084611;28;20492;-86
2021/08/22 05:16:11;;;;;;;5.97;5.47;;;17.10;99.90;;;16.16;100.00;97997.88;5081255;28;20433;-86
2021/08/22 05:18:58;;;;;;;6.07;5.47;;;17.00;99.90;;;16.04;100.00;97990.63;5067612;28;20434;-86
2021/08/22 05:21:46;;;;;;;7.10;6.40;;;17.00;99.90;;;16.17;100.00;97999.53;5072320;28;20465;-86
2021/08/22 05:24:34;;;;;;;6.53;5.87;;;17.10;99.90;;;16.03;100.00;97961.72;5061372;28;20473;-88
2021/08/22 05:27:23;;;;;;;7.57;5.77;;;17.20;99.90;;;16.43;100.00;97997.94;5078783;28;20441;-86
2021/08/22 05:30:15;;;;;;;8.87;5.50;;;17.30;99.90;;;16.45;100.00;98012.13;5075387;28;20460;-86
2021/08/22 05:33:04;;;;;;;6.63;5.93;;;17.30;99.90;;;16.31;100.00;98005.41;5077755;28;20995;-86
2021/08/22 05:35:53;;;;;;;7.67;5.80;;;17.30;99.90;;;16.48;99.66;98002.63;5058120;28;20451;-86
2021/08/22 05:38:40;;;;;;;6.47;5.87;;;17.30;99.90;;;16.50;99.80;97992.28;5074426;28;20429;-86
2021/08/22 05:41:28;;;;;;;6.07;5.07;;;17.40;99.90;;;16.51;100.00;98004.84;5067401;28;20565;-86
2021/08/22 05:44:16;;;;;;;6.07;5.47;;;17.40;99.90;;;16.70;99.28;97997.97;5071752;28;20445;-86
2021/08/22 05:47:07;;;;;;;6.67;5.87;;;17.50;99.90;;;16.68;98.29;97978.31;5070395;28;20506;-86
2021/08/22 05:49:55;;;;;;;6.50;5.90;;;17.60;99.90;;;16.75;98.13;97977.25;5056019;28;20448;-86
2021/08/22 05:52:46;;;;;;;6.37;5.60;;;17.70;99.90;;;16.63;97.06;97942.81;5040643;28;21223;-86
2021/08/22 05:55:33;;;;;;;6.13;5.53;;;17.80;99.90;;;16.89;97.79;97983.97;5072608;28;20465;-86
2021/08/22 05:58:21;;;;;;;7.20;6.50;;;17.80;99.90;;;16.41;97.10;97908.19;5072842;28;20429;-86
2021/08/22 06:01:08;;;;;;;6.53;6.03;;;17.90;99.90;;;17.00;96.21;98004.03;5067071;28;20444;-87
2021/08/22 06:03:57;;;;;;;6.17;5.57;;;17.90;99.60;;;16.89;97.15;97996.78;5051493;28;20444;-87
2021/08/22 06:06:45;;;;;;;6.30;5.33;;;17.80;99.90;;;17.09;97.17;98010.66;5053713;28;20515;-86
2021/08/22 06:09:33;;;;;;;7.57;5.73;;;17.90;99.90;;;17.19;95.17;97985.34;5067493;28;20520;-86
2021/08/22 06:12:21;;;;;;;6.43;5.83;;;18.10;98.30;;;17.31;94.29;98020.72;5053482;28;20433;-87
2021/08/22 06:15:14;;;;;;;8.67;5.90;;;18.10;96.70;;;17.33;94.10;98020.44;5070334;28;20488;-85
2021/08/22 06:18:03;;;;;;;7.73;6.80;;;18.10;96.70;;;17.41;94.28;98019.97;5058527;28;20441;-87
2021/08/22 06:20:52;;;;;;;6.80;6.20;;;18.20;97.10;;;17.44;93.97;98024.91;5069206;28;20456;-85
2021/08/22 06:23:40;;;;;;;6.17;5.57;;;18.20;96.50;;;17.62;92.40;98039.25;5055570;28;20463;-87
2021/08/22 06:26:28;;;;;;;7.23;6.10;;;18.30;95.50;;;17.58;93.04;98038.94;5054863;28;20513;-85
2021/08/22 06:29:16;;;;;;;4.90;4.50;;;18.40;95.20;;;17.61;91.19;98004.81;5071244;28;20906;-87
2021/08/22 06:32:05;;;;;;;7.00;6.30;;;18.50;94.40;;;17.96;89.88;98044.41;5073335;28;20441;-87
2021/08/22 06:34:52;;;;;;;6.73;6.13;;;18.70;93.40;;;17.95;89.24;98034.56;5070423;28;20477;-86
2021/08/22 06:37:41;;;;;;;5.90;5.30;;;18.80;92.50;;;17.96;89.80;98044.41;5056675;28;20416;-86
2021/08/22 06:40:31;;;;;;;6.97;6.20;;;18.80;93.00;;;18.23;89.07;98046.22;5050087;28;20444;-88
2021/08/22 06:43:18;;;;;;;6.37;5.77;;;18.90;92.70;;;18.31;88.59;98043.00;5076773;28;20421;-87
2021/08/22 06:46:06;;;;;;;7.80;7.03;;;19.00;92.20;;;18.44;87.84;98055.38;5082144;28;20437;-86
2021/08/22 06:48:55;;;;;;;8.17;6.13;;;19.20;91.80;;;18.56;87.07;98046.94;5052404;28;20818;-86
2021/08/22 06:51:44;;;;;;;6.93;6.33;;;19.30;91.30;;;18.37;87.20;98014.59;5058044;28;20541;-88
2021/08/22 06:54:33;;;;;;;6.80;6.10;;;19.40;91.20;;;18.55;86.39;98053.50;5066974;28;20436;-86
2021/08/22 06:57:20;;;;;;;7.17;6.50;;;19.40;90.60;;;18.72;87.18;98056.03;5049267;28;20976;-87
2021/08/22 07:00:12;;;;;;;6.63;6.03;;;19.40;91.10;;;18.98;85.46;98059.69;5053119;28;20428;-87
2021/08/22 07:03:00;;;;;;;7.30;6.70;;;19.70;90.60;;;19.15;85.24;98034.00;5082823;28;20459;-81
2021/08/22 07:05:47;;;;;;;6.17;5.57;;;19.90;90.60;;;19.55;81.20;98053.47;5075970;28;20428;-79
2021/08/22 07:08:34;;;;;;;5.43;4.97;;;20.20;87.20;;;20.00;78.98;98056.53;5061934;28;20515;-81
2021/08/22 07:11:23;;;;;;;6.07;5.50;;;20.60;85.50;;;20.06;77.54;98027.97;5076514;28;20454;-84
2021/08/22 07:14:11;;;;;;;5.53;5.03;;;20.90;83.80;;;20.37;76.08;98038.88;5082229;28;20453;-79
2021/08/22 07:17:00;;;;;;;5.10;4.63;;;21.10;81.90;;;20.29;75.24;98036.72;5074087;28;20451;-80
2021/08/22 07:19:48;;;;;;;5.77;4.83;;;21.10;80.10;;;20.45;75.34;98047.63;5093817;28;20425;-81
2021/08/22 07:22:35;;;;;;;5.00;4.50;;;21.10;79.90;;;20.47;75.38;98039.94;5097960;28;20443;-82
2021/08/22 07:25:23;;;;;;;5.63;5.00;;;21.10;79.60;;;20.75;73.31;98045.88;5095205;28;20421;-83
2021/08/22 07:28:12;;;;;;;6.30;5.10;;;21.40;78.50;;;20.51;73.80;98027.28;5095647;28;20447;-82
2021/08/22 07:31:04;;;;;;;5.70;4.30;;;21.40;78.00;;;20.56;73.73;98054.75;5093009;28;20516;-80
2021/08/22 07:33:52;;;;;;;5.07;4.60;;;21.30;77.60;;;20.22;74.09;98038.91;5087406;28;20428;-81
2021/08/22 07:36:40;;;;;;;4.20;3.90;;;21.10;77.30;;;20.30;74.00;98052.06;5053534;28;20437;-83
2021/08/22 07:39:27;;;;;;;4.53;4.13;;;21.00;77.00;;;20.08;74.96;98041.44;5084772;28;20461;-83
2021/08/22 07:42:14;;;;;;;5.50;5.00;;;21.00;77.50;;;20.20;75.12;98049.34;5081757;28;20531;-83
2021/08/22 07:45:03;;;;;;;4.50;4.10;;;21.00;77.80;;;20.21;74.64;98046.34;5079191;28;20432;-82
2021/08/22 07:47:50;;;;;;;4.97;4.53;;;20.90;77.50;;;20.41;74.83;98052.06;5084061;28;20524;-83
2021/08/22 07:50:38;;;;;;;4.67;4.27;;;21.00;77.90;;;20.62;74.23;98047.28;5085526;28;20456;-83
2021/08/22 07:53:25;;;;;;;4.23;3.93;;;21.20;77.90;;;20.72;73.25;98049.19;5082625;28;20433;-82
2021/08/22 07:56:14;;;;;;;4.33;3.97;;;21.40;77.10;;;20.55;72.57;98038.53;5065319;28;20998;-83
2021/08/22 07:59:03;;;;;;;4.33;3.77;;;21.40;76.00;;;20.56;73.16;98049.25;5086014;28;20437;-83
2021/08/22 08:01:51;;;;;;;6.03;4.40;;;21.30;76.30;;;20.55;73.77;98060.50;5081393;28;20846;-84
2021/08/22 08:04:39;;;;;;;4.43;4.03;;;21.20;76.60;;;20.46;74.12;98058.31;5065537;28;21172;-82
2021/08/22 08:07:26;;;;;;;4.70;4.27;;;21.20;76.80;;;20.24;74.89;98064.13;5085057;28;20515;-83
2021/08/22 08:10:14;;;;;;;6.20;4.10;;;21.00;76.80;;;20.13;74.74;98063.34;5077903;28;20440;-82
2021/08/22 08:13:01;;;;;;;4.70;3.60;;;20.90;76.90;;;20.38;74.08;98056.16;5062588;28;20472;-83
2021/08/22 08:15:49;;;;;;;4.23;3.83;;;21.00;77.00;;;20.80;73.20;98062.31;5074012;28;20449;-82
2021/08/22 08:18:38;;;;;;;5.07;4.00;;;21.30;76.80;;;21.41;71.34;98060.34;5069753;28;20528;-83
2021/08/22 08:21:25;;;;;;;4.83;4.40;;;21.80;76.40;;;;;;5077166;28;21187;-83
2021/08/22 08:24:13;;;;;;;5.13;4.47;;;22.20;75.30;;;22.29;68.62;98069.75;5054073;28;20445;-82
2021/08/22 08:27:00;;;;;;;4.17;3.77;;;22.80;74.50;;;22.59;66.92;98076.91;5074826;28;20430;-82
2021/08/22 08:29:48;;;;;;;5.20;4.50;;;23.10;72.80;;;22.87;66.13;98076.28;5076109;28;20462;-84
2021/08/22 08:32:39;;;;;;;4.80;4.40;;;23.40;72.00;;;23.17;64.19;98072.31;5073099;28;20455;-84
2021/08/22 08:35:27;;;;;;;5.43;4.03;;;23.60;70.90;;;22.98;65.18;98085.25;5070801;28;20450;-84
2021/08/22 08:38:15;;;;;;;4.00;3.60;;;23.50;70.70;;;23.01;65.38;98084.66;5066704;28;21032;-84
2021/08/22 08:41:02;;;;;;;5.17;4.50;;;23.50;70.60;;;22.48;65.20;98078.13;5064371;28;20955;-81
2021/08/22 08:43:50;;;;;;;4.27;3.87;;;23.30;69.40;;;22.47;65.78;98084.72;5067412;28;20586;-80
2021/08/22 08:46:39;;;;;;;4.67;4.00;;;23.10;69.80;;;22.55;65.04;98089.63;5069463;28;21233;-79
2021/08/22 08:49:28;;;;;;;3.80;3.50;;;23.00;69.50;;;22.51;65.14;98080.28;5068460;28;20440;-79
2021/08/22 08:52:23;;;;;;;3.90;3.60;;;23.10;69.30;;;22.38;65.52;98080.97;5070703;28;20437;-80
2021/08/22 08:55:17;;;;;;;4.70;4.13;;;23.10;69.30;;;22.82;64.32;98079.13;5063462;28;20429;-78
2021/08/22 08:58:05;;;;;;;4.17;3.77;;;23.30;69.20;;;22.98;64.01;98088.00;5065562;28;20520;-78
2021/08/22 09:00:52;;;;;;;4.97;4.20;;;23.50;69.00;;;23.31;63.15;98085.38;5063530;28;20590;-81
2021/08/22 09:03:47;;;;;;;6.60;3.87;;;23.80;68.80;;;23.65;61.90;98084.31;5064189;28;22228;-78
2021/08/22 09:07:33;;;;;;;4.67;4.17;;;24.10;68.10;;;23.85;61.54;98085.91;5069315;28;20445;-78
2021/08/22 09:11:09;;;;;;;4.17;3.80;;;24.30;67.40;;;23.94;60.56;98080.53;5057522;28;20436;-77
2021/08/22 09:15:02;;;;;;;6.00;4.80;;;24.70;66.60;;;24.48;59.66;98077.34;5059945;28;20457;-77
2021/08/22 09:18:46;;;;;;;4.73;4.30;;;25.00;66.20;;;24.97;58.45;98082.50;5051908;28;20441;-80
2021/08/22 09:22:32;;;;;;;6.00;4.37;;;25.40;65.60;;;25.12;57.52;98082.16;5071949;28;20449;-77
2021/08/22 09:26:24;;;;;;;4.10;3.80;;;25.70;64.90;;;25.30;57.17;98076.78;5069343;28;20425;-80
2021/08/22 09:30:02;;;;;;;6.13;5.17;;;25.90;64.10;;;25.68;56.09;98079.22;5066901;28;20452;-78
2021/08/22 09:33:46;;;;;;;5.13;4.63;;;26.10;64.20;;;25.55;56.26;98078.16;5073613;28;20542;-79
2021/08/22 09:37:32;;;;;;;5.73;4.20;;;26.40;63.50;;;25.33;56.47;98078.94;5072962;28;20429;-76
2021/08/22 09:41:14;;;;;;;4.90;4.50;;;26.10;63.00;;;24.86;57.93;98076.34;5074901;28;20428;-77
2021/08/22 09:45:02;;;;;;;6.00;5.50;;;25.80;63.40;;;24.10;59.94;98083.03;5079622;28;20438;-76
2021/08/22 09:48:58;;;;;;;5.77;5.27;;;25.10;64.30;;;23.69;61.91;98085.34;5079748;28;20512;-79
2021/08/22 09:55:59;;;;;;;5.97;5.47;;;24.50;65.00;;;22.83;64.64;98081.59;5131401;27;20582;-77
2021/08/22 10:00:05;;;;;;;5.67;5.17;;;23.80;66.20;;;22.19;67.87;98081.69;5125083;28;20483;-76
2021/08/22 10:03:48;;;;;;;7.90;6.27;;;23.10;67.30;;;22.02;68.56;98085.72;5127110;27;20971;-76
2021/08/22 10:07:02;;;;;;;7.70;6.90;;;22.80;68.50;;;21.68;72.77;98078.31;5111084;28;20464;-76
2021/08/22 10:09:53;;;;;;;7.50;6.80;;;22.60;70.60;;;21.46;75.36;98071.31;5124833;28;20580;-76
2021/08/22 10:12:42;;;;;;;7.13;6.50;;;22.30;73.20;;;20.74;80.38;98049.72;5122384;28;20438;-76
2021/08/22 10:15:31;;;;;;;8.70;7.90;;;21.70;77.30;;;20.56;82.84;98065.72;5129016;28;20965;-77
2021/08/22 10:18:22;;;;;;;8.80;7.97;;;21.50;82.20;;;20.26;83.51;98055.66;5118435;27;20458;-80
2021/08/22 10:21:11;;;;;;;8.13;7.43;;;21.10;84.10;;;20.45;84.52;98067.66;5127647;27;20438;-76
2021/08/22 10:24:02;;;;;;;8.63;7.83;;;21.10;86.70;;;20.49;82.89;98078.91;5118788;27;20438;-77
2021/08/22 10:26:52;;;;;;;8.90;8.10;;;21.30;85.30;;;20.34;84.43;98082.53;5126654;28;20418;-78
2021/08/22 10:30:12;;;;;;;10.60;9.00;;;21.20;87.10;;;20.15;85.19;98068.56;5127946;27;20494;-79
2021/08/22 10:33:18;;;;;;;9.60;8.80;;;21.00;87.90;;;20.04;87.09;98062.28;5112944;28;20450;-80
2021/08/22 10:36:30;;;;;;;11.10;10.03;;;21.00;90.20;;;20.13;86.35;98073.50;5132653;27;20442;-79
2021/08/22 10:39:31;;;;;;;12.40;11.20;;;21.00;90.20;;;20.25;85.45;98074.03;5138182;27;20501;-79
2021/08/22 10:42:24;;;;;;;12.83;11.60;;;21.10;89.70;;;20.43;85.94;98058.88;5131496;27;22196;-79
2021/08/22 10:45:11;;;;;;;12.63;11.33;;;21.20;90.40;;;20.52;83.21;98054.47;5125011;28;20913;-79
2021/08/22 10:47:59;;;;;;;12.30;11.10;;;21.40;88.00;;;20.83;82.34;98070.00;5133103;27;20430;-79
2021/08/22 10:51:11;;;;;;;12.47;11.33;;;21.50;87.50;;;21.44;80.90;98065.25;5145235;27;20499;-80
2021/08/22 10:54:21;;;;;;;12.10;10.00;;;22.00;87.40;;;21.98;77.91;98056.31;5108087;28;20450;-82
2021/08/22 10:57:08;;;;;;;11.50;10.30;;;22.40;84.50;;;22.32;74.62;98060.94;5134490;27;20500;-80
2021/08/22 11:00:22;;;;;;;9.77;8.90;;;22.90;80.60;;;22.73;73.31;98060.47;5129242;27;20484;-81
2021/08/22 11:03:21;;;;;;;8.10;7.40;;;23.20;78.80;;;22.38;72.37;98046.00;5122461;28;20530;-80
2021/08/22 11:06:12;;;;;;;8.10;7.50;;;23.20;77.10;;;22.33;73.36;98046.88;5095432;27;20429;-78
2021/08/22 11:09:00;;;;;;;8.07;7.37;;;23.20;77.60;;;21.98;72.57;98057.16;5120784;27;22159;-83
2021/08/22 11:11:49;;;;;;;8.40;7.70;;;22.90;76.30;;;21.66;73.20;98050.28;5129124;27;20462;-85
2021/08/22 11:14:36;;;;;;;9.23;7.00;;;22.50;76.40;;;21.58;74.12;98059.09;5097281;28;20529;-80
2021/08/22 11:17:26;;;;;;;8.03;7.23;;;22.30;77.00;;;21.48;74.90;98055.34;5127432;27;20892;-88
2021/08/22 11:20:18;;;;;;;7.37;6.77;;;22.20;77.70;;;21.61;74.10;98047.53;5101416;28;20470;-89
2021/08/22 11:23:16;;;;;;;8.20;7.50;;;22.30;77.30;;;21.62;74.66;98043.72;5130767;28;20490;-87
2021/08/22 11:26:07;;;;;;;7.90;7.00;;;22.30;77.40;;;22.27;73.03;98042.56;5135850;27;20431;-83
2021/08/22 11:29:05;;;;;;;7.30;6.70;;;22.80;77.60;;;22.73;70.68;98035.69;5111245;28;20424;-83
2021/08/22 11:32:05;;;;;;;7.27;6.67;;;23.20;76.10;;;22.71;69.92;98029.66;5115540;28;20476;-84
2021/08/22 11:34:53;;;;;;;7.40;6.80;;;23.40;74.80;;;23.04;69.74;98031.72;5124547;27;20529;-82
2021/08/22 11:37:42;;;;;;;10.03;6.37;;;23.50;75.20;;;23.16;67.49;98029.34;5112583;27;20419;-84
2021/08/22 11:40:35;;;;;;;7.90;7.30;;;23.60;73.20;;;22.97;67.78;98025.75;5106209;27;20435;-81
2021/08/22 11:43:22;;;;;;;7.57;6.80;;;23.60;72.50;;;22.97;67.32;98017.47;5102334;28;20869;-80
2021/08/22 11:46:22;;;;;;;7.77;7.10;;;23.60;72.00;;;23.29;66.72;98015.97;5100710;27;20457;-81
2021/08/22 11:49:10;;;;;;;7.87;7.10;;;23.80;72.50;;;23.72;65.58;98007.50;5122673;27;20508;-82
2021/08/22 11:51:58;;;;;;;7.40;6.70;;;24.20;71.90;;;24.16;64.00;98001.78;5131767;27;20556;-81
2021/08/22 11:54:51;;;;;;;7.03;6.40;;;24.80;70.30;;;24.94;60.08;98016.78;5135110;27;20455;-84
2021/08/22 11:57:42;;;;;;;6.90;6.33;;;25.40;68.20;;;25.23;59.67;98015.56;5113910;27;20472;-83
2021/08/22 12:00:33;;;;;;;8.27;6.47;;;25.70;67.50;;;25.38;58.23;98004.16;5109606;27;20419;-84
2021/08/22 12:17:11;;;;;;;6.40;5.80;;;26.10;65.20;;;23.25;62.84;97982.63;5912997;22;5509220;-89
2021/08/22 12:20:20;;;;;;;6.90;6.30;;;24.50;65.60;;;23.31;63.99;98030.25;6171554;23;20168;-89
2021/08/22 12:26:25;;;;;;;6.77;6.27;;;24.00;67.40;;;23.62;63.98;98016.78;6171560;23;20442;-88
2021/08/22 12:29:14;;;;;;;7.40;6.80;;;24.20;67.80;;;24.39;61.92;98024.00;6168693;23;20697;-89
2021/08/22 12:32:26;;;;;;;7.57;6.87;;;24.70;67.50;;;24.03;61.35;98004.22;6175382;23;20491;-88